createdAt,value
2022-08-19T00:01:37.754Z,0.14
2022-08-19T00:03:36.533Z,0
2022-08-19T00:05:38.371Z,0
2022-08-19T00:07:39.792Z,0.28
2022-08-19T00:09:41.568Z,0
2022-08-19T00:11:42.981Z,0
2022-08-19T00:13:44.287Z,0
2022-08-19T00:15:45.347Z,0.14
2022-08-19T00:17:46.212Z,0
2022-08-19T00:19:47.950Z,0
2022-08-19T00:21:49.801Z,0
2022-08-19T00:23:51.503Z,1.544
2022-08-19T00:25:52.746Z,0.14
2022-08-19T00:29:55.379Z,0
2022-08-19T00:31:57.246Z,0
2022-08-19T00:33:58.603Z,0
2022-08-19T00:35:59.619Z,0
2022-08-19T00:40:02.557Z,0
2022-08-19T00:42:03.969Z,0
2022-08-19T00:44:05.522Z,0
2022-08-19T00:46:07.089Z,0
2022-08-19T00:48:11.755Z,0
2022-08-19T00:50:10.039Z,0
2022-08-19T00:52:11.153Z,0
2022-08-19T00:54:12.679Z,0.702
2022-08-19T00:56:13.868Z,0
2022-08-19T00:58:14.797Z,0.702
2022-08-19T01:00:16.426Z,0
2022-08-19T01:02:17.356Z,0
2022-08-19T01:04:18.476Z,0
2022-08-19T01:06:20.763Z,0
2022-08-19T01:08:21.033Z,0.28
2022-08-19T01:10:22.466Z,0
2022-08-19T01:12:23.572Z,0
2022-08-19T01:14:24.497Z,0
2022-08-19T01:16:26.310Z,0
2022-08-19T01:18:28.164Z,0
2022-08-19T01:19:11.975Z,0
2022-08-19T01:21:12.871Z,0
2022-08-19T01:23:14.002Z,0
2022-08-19T01:25:15.325Z,0
2022-08-19T01:27:16.900Z,1.825
2022-08-19T01:29:17.896Z,0
2022-08-19T01:33:21.402Z,0
2022-08-19T01:35:22.866Z,0
2022-08-19T01:37:25.031Z,0
2022-08-19T01:39:26.139Z,0
2022-08-19T01:41:27.651Z,0
2022-08-19T01:43:29.217Z,0.14
2022-08-19T01:45:30.371Z,0.842
2022-08-19T01:47:32.253Z,0.421
2022-08-19T01:49:33.886Z,0
2022-08-19T01:51:39.676Z,0
2022-08-19T01:53:37.165Z,0
2022-08-19T01:55:40.717Z,0
2022-08-19T01:57:39.862Z,0
2022-08-19T01:59:41.260Z,0
2022-08-19T02:01:42.417Z,0
2022-08-19T02:05:44.365Z,1.544
2022-08-19T02:07:45.941Z,0.28
2022-08-19T02:09:47.781Z,0.28
2022-08-19T02:11:49.153Z,0
2022-08-19T02:15:51.601Z,0
2022-08-19T02:17:52.911Z,0
2022-08-19T02:19:54.498Z,0
2022-08-19T02:21:55.631Z,0
2022-08-19T02:23:57.168Z,0
2022-08-19T02:25:58.843Z,0
2022-08-19T02:28:00.397Z,0
2022-08-19T02:30:01.777Z,0
2022-08-19T02:32:03.102Z,0
2022-08-19T02:34:04.221Z,0
2022-08-19T02:36:05.290Z,0
2022-08-19T02:38:06.616Z,0.561
2022-08-19T02:40:12.210Z,1.544
2022-08-19T02:42:09.311Z,0.702
2022-08-19T02:44:23.080Z,0.14
2022-08-19T02:46:12.111Z,0.421
2022-08-19T02:48:14.906Z,0.14
2022-08-19T02:50:15.146Z,0
2022-08-19T02:52:16.352Z,0
2022-08-19T02:54:17.870Z,0
2022-08-19T02:56:19.389Z,0
2022-08-19T02:58:20.923Z,0
2022-08-19T03:00:22.489Z,0
2022-08-19T03:02:23.953Z,0
2022-08-19T03:04:25.748Z,0
2022-08-19T03:06:26.723Z,0
2022-08-19T03:08:27.689Z,0
2022-08-19T03:10:28.645Z,0
2022-08-19T03:12:30.051Z,0
2022-08-19T03:14:31.839Z,0
2022-08-19T03:16:33.755Z,0
2022-08-19T03:18:35.067Z,0
2022-08-19T03:20:36.626Z,0
2022-08-19T03:22:38.199Z,0
2022-08-19T03:24:39.529Z,0
2022-08-19T03:26:40.387Z,0
2022-08-19T03:28:41.330Z,0
2022-08-19T03:30:51.874Z,0
2022-08-19T03:32:57.029Z,0
2022-08-19T03:46:54.044Z,0
2022-08-19T03:48:55.007Z,0
2022-08-19T03:50:55.792Z,0
2022-08-19T03:52:56.781Z,0
2022-08-19T03:56:59.104Z,0
2022-08-19T03:59:00.609Z,0
2022-08-19T04:01:01.636Z,0
2022-08-19T04:03:03.356Z,0
2022-08-19T04:05:04.506Z,0
2022-08-19T04:09:07.483Z,0
2022-08-19T04:11:09.338Z,0
2022-08-19T04:13:10.660Z,0
2022-08-19T04:15:11.847Z,0
2022-08-19T04:19:14.438Z,0
2022-08-19T04:21:16.022Z,0
2022-08-19T04:23:16.926Z,0
2022-08-19T04:25:18.042Z,0
2022-08-19T04:29:20.554Z,0
2022-08-19T04:31:22.041Z,0
2022-08-19T04:33:25.209Z,0
2022-08-19T04:35:25.062Z,0
2022-08-19T04:39:27.807Z,0
2022-08-19T04:41:29.018Z,0
2022-08-19T04:43:29.917Z,0
2022-08-19T04:45:32.743Z,0
2022-08-19T04:47:46.787Z,0
2022-08-19T04:49:34.026Z,0
2022-08-19T04:51:35.026Z,0
2022-08-19T04:53:37.907Z,0
2022-08-19T04:55:38.403Z,0
2022-08-19T04:57:38.959Z,0
2022-08-19T04:59:40.390Z,0
2022-08-19T05:01:41.328Z,0
2022-08-19T05:03:42.319Z,0
2022-08-19T05:05:44.549Z,0
2022-08-19T05:07:44.967Z,0
2022-08-19T05:09:57.171Z,0
2022-08-19T05:11:48.391Z,0
2022-08-19T05:13:50.138Z,0
2022-08-19T05:15:51.369Z,0
2022-08-19T05:17:52.376Z,0
2022-08-19T05:19:53.679Z,0
2022-08-19T05:21:54.874Z,0
2022-08-19T05:23:55.799Z,0
2022-08-19T05:27:58.233Z,0
2022-08-19T05:29:59.527Z,0
2022-08-19T05:32:00.605Z,0.561
2022-08-19T05:34:01.662Z,0
2022-08-19T05:36:03.128Z,0
2022-08-19T05:38:04.733Z,0
2022-08-19T05:40:06.328Z,0
2022-08-19T05:42:07.194Z,0
2022-08-19T05:44:08.961Z,0
2022-08-19T05:46:10.274Z,0
2022-08-19T05:48:11.894Z,0
2022-08-19T05:50:13.402Z,0
2022-08-19T05:52:14.320Z,0
2022-08-19T05:54:16.026Z,0
2022-08-19T05:56:16.900Z,0
2022-08-19T06:00:22.699Z,0
2022-08-19T06:02:20.800Z,0
2022-08-19T06:04:21.750Z,0
2022-08-19T06:06:23.252Z,0
2022-08-19T06:08:34.063Z,0
2022-08-19T06:10:26.077Z,0
2022-08-19T06:12:27.452Z,0
2022-08-19T06:14:28.970Z,0
2022-08-19T06:16:30.214Z,0
2022-08-19T06:18:31.829Z,0
2022-08-19T06:20:54.323Z,0
2022-08-19T06:22:34.336Z,0
2022-08-19T06:24:35.474Z,0
2022-08-19T06:26:36.364Z,0
2022-08-19T06:28:37.961Z,0
2022-08-19T06:30:39.702Z,0
2022-08-19T06:32:42.954Z,0
2022-08-19T06:34:42.981Z,0
2022-08-19T06:36:44.193Z,0
2022-08-19T06:38:45.678Z,0
2022-08-19T06:40:46.796Z,0
2022-08-19T06:42:52.331Z,0
2022-08-19T06:44:49.937Z,0
2022-08-19T06:46:53.706Z,1.404
2022-08-19T06:48:52.424Z,0.14
2022-08-19T06:50:54.027Z,0
2022-08-19T06:52:55.218Z,0
2022-08-19T06:54:56.806Z,0
2022-08-19T06:58:58.232Z,0.842
2022-08-19T07:00:59.480Z,0
2022-08-19T07:03:04.428Z,1.404
2022-08-19T07:05:02.981Z,0.702
2022-08-19T07:09:06.431Z,0.14
2022-08-19T07:11:09.333Z,0.14
2022-08-19T07:13:08.680Z,0
2022-08-19T07:15:09.833Z,0
2022-08-19T07:17:11.495Z,0
2022-08-19T07:19:16.063Z,0.14
2022-08-19T07:21:14.252Z,0
2022-08-19T07:23:15.985Z,0.561
2022-08-19T07:25:16.722Z,2.667
2022-08-19T07:27:17.682Z,2.808
2022-08-19T07:31:23.182Z,0.28
2022-08-19T07:33:21.876Z,0.702
2022-08-19T07:35:22.731Z,0.842
2022-08-19T07:37:23.944Z,0
2022-08-19T07:39:25.332Z,0.14
2022-08-19T07:41:27.105Z,0.28
2022-08-19T07:43:35.083Z,1.544
2022-08-19T07:45:29.971Z,0.28
2022-08-19T07:47:48.710Z,0.702
2022-08-19T07:51:36.830Z,0.842
2022-08-19T07:53:39.230Z,1.684
2022-08-19T07:55:40.796Z,1.123
2022-08-19T07:57:37.969Z,0.421
2022-08-19T07:59:39.361Z,1.404
2022-08-19T08:01:41.549Z,0.842
2022-08-19T08:03:42.171Z,0
2022-08-19T08:04:25.653Z,0.421
2022-08-19T08:06:26.581Z,1.404
2022-08-19T08:08:27.765Z,2.808
2022-08-19T08:10:28.371Z,1.544
2022-08-19T08:12:34.891Z,3.51
2022-08-19T08:14:35.183Z,0.982
2022-08-19T08:16:32.645Z,1.825
2022-08-19T08:18:33.601Z,0
2022-08-19T08:20:35.102Z,3.229
2022-08-19T08:22:36.059Z,0.702
2022-08-19T08:24:37.428Z,1.965
2022-08-19T08:26:38.716Z,0
2022-08-19T08:28:39.731Z,0
2022-08-19T08:30:41.121Z,0
2022-08-19T08:34:43.061Z,0.28
2022-08-19T08:36:44.090Z,0.561
2022-08-19T08:38:45.509Z,1.825
2022-08-19T08:40:47.141Z,0.28
2022-08-19T08:42:48.579Z,4.773
2022-08-19T08:44:50.299Z,2.246
2022-08-19T08:46:52.662Z,1.684
2022-08-19T08:48:52.920Z,0.28
2022-08-19T08:50:53.770Z,0
2022-08-19T08:52:55.364Z,0.561
2022-08-19T08:54:56.437Z,0
2022-08-19T08:56:57.552Z,0
2022-08-19T08:58:58.504Z,0.14
2022-08-19T09:01:00.184Z,0
2022-08-19T09:03:01.316Z,0.561
2022-08-19T09:05:02.978Z,4.773
2022-08-19T09:07:18.082Z,1.123
2022-08-19T09:09:12.055Z,0.842
2022-08-19T09:11:06.693Z,0
2022-08-19T09:13:09.130Z,0.14
2022-08-19T09:17:11.046Z,0.842
2022-08-19T09:19:12.108Z,1.123
2022-08-19T09:21:13.508Z,4.492
2022-08-19T09:23:14.700Z,4.212
2022-08-19T09:27:18.331Z,3.229
2022-08-19T09:29:18.495Z,1.404
2022-08-19T09:31:19.963Z,3.931
2022-08-19T09:33:21.198Z,4.071
2022-08-19T09:35:22.080Z,2.246
2022-08-19T09:37:23.860Z,3.229
2022-08-19T09:39:25.371Z,3.369
2022-08-19T09:41:26.573Z,2.386
2022-08-19T09:43:29.050Z,0.421
2022-08-19T09:45:28.564Z,3.931
2022-08-19T09:47:29.445Z,0.842
2022-08-19T09:49:30.575Z,0.982
2022-08-19T09:51:31.818Z,0.14
2022-08-19T09:53:33.169Z,3.931
2022-08-19T09:55:34.031Z,0.982
2022-08-19T09:57:35.814Z,2.808
2022-08-19T09:59:37.043Z,4.492
2022-08-19T10:01:38.528Z,0
2022-08-19T10:05:42.262Z,6.037
2022-08-19T10:07:41.604Z,4.773
2022-08-19T10:09:42.581Z,4.633
2022-08-19T10:11:51.125Z,5.335
2022-08-19T10:15:49.459Z,0.982
2022-08-19T10:17:54.982Z,2.246
2022-08-19T10:19:53.457Z,2.527
2022-08-19T10:21:51.744Z,4.633
2022-08-19T10:25:54.938Z,3.088
2022-08-19T10:27:56.134Z,1.544
2022-08-19T10:29:57.575Z,6.458
2022-08-19T10:32:00.244Z,4.212
2022-08-19T10:33:59.949Z,0.702
2022-08-19T10:36:00.941Z,4.212
2022-08-19T10:38:02.508Z,1.825
2022-08-19T10:40:04.120Z,1.263
2022-08-19T10:42:05.345Z,2.386
2022-08-19T10:44:06.172Z,0.702
2022-08-19T10:46:09.595Z,0.561
2022-08-19T10:48:08.132Z,5.194
2022-08-19T10:50:09.100Z,4.352
2022-08-19T10:52:10.336Z,4.914
2022-08-19T10:54:12.496Z,1.404
2022-08-19T10:58:14.771Z,1.965
2022-08-19T11:00:15.882Z,0.28
2022-08-19T11:02:16.771Z,0.842
2022-08-19T11:04:17.892Z,4.071
2022-08-19T11:08:22.196Z,3.79
2022-08-19T11:10:22.160Z,5.616
2022-08-19T11:12:22.494Z,6.458
2022-08-19T11:14:24.332Z,6.458
2022-08-19T11:16:25.507Z,2.948
2022-08-19T11:18:27.028Z,2.667
2022-08-19T11:20:28.451Z,3.229
2022-08-19T11:22:34.446Z,2.948
2022-08-19T11:24:30.838Z,6.318
2022-08-19T11:26:32.274Z,3.229
2022-08-19T11:28:33.980Z,3.369
2022-08-19T11:30:35.070Z,0.561
2022-08-19T11:32:35.872Z,3.65
2022-08-19T11:34:36.821Z,3.229
2022-08-19T11:36:38.191Z,5.896
2022-08-19T11:38:39.866Z,5.194
2022-08-19T11:40:40.895Z,5.475
2022-08-19T11:42:41.715Z,1.404
2022-08-19T11:44:43.381Z,2.386
2022-08-19T11:46:44.917Z,3.51
2022-08-19T11:48:45.998Z,0.842
2022-08-19T11:50:47.391Z,4.071
2022-08-19T11:52:48.813Z,5.756
2022-08-19T11:54:50.159Z,4.773
2022-08-19T11:56:51.885Z,3.65
2022-08-19T11:58:53.293Z,0
2022-08-19T12:00:54.367Z,2.667
2022-08-19T12:02:55.242Z,5.194
2022-08-19T12:06:58.003Z,0.561
2022-08-19T12:08:59.493Z,3.931
2022-08-19T12:11:00.382Z,1.684
2022-08-19T12:13:10.294Z,1.263
2022-08-19T12:15:02.438Z,2.948
2022-08-19T12:19:04.668Z,4.071
2022-08-19T12:21:05.514Z,3.088
2022-08-19T12:23:07.123Z,1.965
2022-08-19T12:25:08.544Z,0.842
2022-08-19T12:27:12.513Z,2.667
2022-08-19T12:29:11.403Z,1.965
2022-08-19T12:31:12.909Z,3.369
2022-08-19T12:33:14.363Z,0.14
2022-08-19T12:35:15.406Z,1.123
2022-08-19T12:37:16.693Z,0.421
2022-08-19T12:39:17.717Z,0.702
2022-08-19T12:41:19.311Z,4.492
2022-08-19T12:43:20.607Z,4.352
2022-08-19T12:45:22.196Z,4.914
2022-08-19T12:49:34.408Z,0.421
2022-08-19T12:51:25.525Z,2.667
2022-08-19T12:53:26.977Z,0.421
2022-08-19T12:55:27.830Z,2.667
2022-08-19T12:57:31.763Z,4.212
2022-08-19T12:59:30.339Z,4.352
2022-08-19T13:01:31.501Z,2.948
2022-08-19T13:03:34.771Z,0
2022-08-19T13:05:34.191Z,1.263
2022-08-19T13:07:36.039Z,3.088
2022-08-19T13:09:37.670Z,5.475
2022-08-19T13:11:38.730Z,2.527
2022-08-19T13:13:40.378Z,8.143
2022-08-19T13:15:41.713Z,4.633
2022-08-19T13:17:42.675Z,6.177
2022-08-19T13:19:43.578Z,9.266
2022-08-19T13:21:44.860Z,3.51
2022-08-19T13:23:46.484Z,2.948
2022-08-19T13:25:48.066Z,2.667
2022-08-19T13:27:49.072Z,6.037
2022-08-19T13:29:50.006Z,9.126
2022-08-19T13:31:51.860Z,6.458
2022-08-19T13:33:52.893Z,7.441
2022-08-19T13:35:53.777Z,3.931
2022-08-19T13:37:55.219Z,7.3
2022-08-19T13:39:56.760Z,5.616
2022-08-19T13:41:57.900Z,3.79
2022-08-19T13:43:59.604Z,11.232
2022-08-19T13:46:01.127Z,3.79
2022-08-19T13:48:02.292Z,3.229
2022-08-19T13:50:03.530Z,3.369
2022-08-19T13:52:04.485Z,2.667
2022-08-19T13:54:05.649Z,3.79
2022-08-19T13:56:06.494Z,1.965
2022-08-19T13:58:08.054Z,2.667
2022-08-19T14:00:08.913Z,1.404
2022-08-19T14:02:09.895Z,3.931
2022-08-19T14:04:11.565Z,2.106
2022-08-19T14:06:12.353Z,1.123
2022-08-19T14:08:13.162Z,2.527
2022-08-19T14:10:14.102Z,5.054
2022-08-19T14:12:14.866Z,3.79
2022-08-19T14:14:16.575Z,2.106
2022-08-19T14:16:17.822Z,1.684
2022-08-19T14:20:20.104Z,1.123
2022-08-19T14:22:22.059Z,2.527
2022-08-19T14:24:22.451Z,3.229
2022-08-19T14:26:24.122Z,5.616
2022-08-19T14:28:26.502Z,2.106
2022-08-19T14:30:26.440Z,1.544
2022-08-19T14:32:27.783Z,2.667
2022-08-19T14:34:28.875Z,5.475
2022-08-19T14:36:29.844Z,1.965
2022-08-19T14:38:31.507Z,3.088
2022-08-19T14:40:31.916Z,5.194
2022-08-19T14:42:32.879Z,6.458
2022-08-19T14:44:34.526Z,1.965
2022-08-19T14:46:36.094Z,3.65
2022-08-19T14:48:37.511Z,3.369
2022-08-19T14:49:21.166Z,2.948
2022-08-19T14:53:23.972Z,1.825
2022-08-19T14:55:25.892Z,1.263
2022-08-19T14:57:27.121Z,0.14
2022-08-19T14:59:28.426Z,3.229
2022-08-19T15:01:29.536Z,4.633
2022-08-19T15:03:31.185Z,4.071
2022-08-19T15:05:32.865Z,3.79
2022-08-19T15:07:34.141Z,0.842
2022-08-19T15:09:35.029Z,1.123
2022-08-19T15:13:38.064Z,1.965
2022-08-19T15:15:39.365Z,2.246
2022-08-19T15:17:45.068Z,2.808
2022-08-19T15:19:41.758Z,0
2022-08-19T15:23:45.487Z,0
2022-08-19T15:25:45.646Z,5.616
2022-08-19T15:27:46.971Z,1.404
2022-08-19T15:29:48.564Z,1.684
2022-08-19T15:31:50.183Z,0.421
2022-08-19T15:35:53.691Z,1.544
2022-08-19T15:37:55.352Z,0
2022-08-19T15:39:56.991Z,1.263
2022-08-19T15:41:58.342Z,1.825
2022-08-19T15:43:59.585Z,0.421
2022-08-19T15:46:00.391Z,3.088
2022-08-19T15:48:01.245Z,0
2022-08-19T15:50:02.572Z,4.352
2022-08-19T15:52:03.662Z,0
2022-08-19T15:54:05.078Z,0.28
2022-08-19T15:56:06.453Z,0
2022-08-19T15:58:07.906Z,2.667
2022-08-19T16:00:09.591Z,4.071
2022-08-19T16:06:13.589Z,3.229
2022-08-19T16:08:15.007Z,5.616
2022-08-19T16:12:16.951Z,1.684
2022-08-19T16:14:17.911Z,2.667
2022-08-19T16:16:19.642Z,2.948
2022-08-19T16:18:21.352Z,2.948
2022-08-19T16:20:23.049Z,4.071
2022-08-19T16:22:24.816Z,4.352
2022-08-19T16:24:25.713Z,4.352
2022-08-19T16:26:27.713Z,3.931
2022-08-19T16:28:28.247Z,5.194
2022-08-19T16:30:29.627Z,5.194
2022-08-19T16:32:30.840Z,4.212
2022-08-19T16:34:32.250Z,5.756
2022-08-19T16:36:33.985Z,2.948
2022-08-19T16:38:35.163Z,4.633
2022-08-19T16:40:36.505Z,3.229
2022-08-19T16:42:37.812Z,4.212
2022-08-19T16:44:39.261Z,5.194
2022-08-19T16:46:40.314Z,2.667
2022-08-19T16:48:42.022Z,3.088
2022-08-19T16:50:49.388Z,5.756
2022-08-19T16:52:45.018Z,3.229
2022-08-19T16:54:46.408Z,2.527
2022-08-19T16:56:47.572Z,5.194
2022-08-19T16:58:49.178Z,1.263
2022-08-19T17:00:50.426Z,2.106
2022-08-19T17:02:51.784Z,3.65
2022-08-19T17:04:55.960Z,2.106
2022-08-19T17:06:55.057Z,1.684
2022-08-19T17:08:56.635Z,2.106
2022-08-19T17:11:17.989Z,2.808
2022-08-19T17:12:58.932Z,3.931
2022-08-19T17:14:59.988Z,4.212
2022-08-19T17:17:01.733Z,3.51
2022-08-19T17:19:02.728Z,4.212
2022-08-19T17:21:04.467Z,2.527
2022-08-19T17:23:05.479Z,3.369
2022-08-19T17:25:06.675Z,3.931
2022-08-19T17:27:08.381Z,2.246
2022-08-19T17:29:10.066Z,1.123
2022-08-19T17:31:11.857Z,1.263
2022-08-19T17:33:12.886Z,3.931
2022-08-19T17:37:15.520Z,3.369
2022-08-19T17:39:17.324Z,5.194
2022-08-19T17:41:18.210Z,4.773
2022-08-19T17:43:19.342Z,4.071
2022-08-19T17:47:21.848Z,5.616
2022-08-19T17:49:22.740Z,4.212
2022-08-19T17:53:25.148Z,3.229
2022-08-19T17:55:26.695Z,2.386
2022-08-19T17:57:28.242Z,2.386
2022-08-19T17:59:30.166Z,2.527
2022-08-19T18:01:43.025Z,6.318
2022-08-19T18:03:32.790Z,4.352
2022-08-19T18:05:33.675Z,2.386
2022-08-19T18:07:34.619Z,2.246
2022-08-19T18:09:38.759Z,2.386
2022-08-19T18:11:37.648Z,0.702
2022-08-19T18:13:38.864Z,2.246
2022-08-19T18:15:40.351Z,4.492
2022-08-19T18:17:41.422Z,3.79
2022-08-19T18:19:43.489Z,0.421
2022-08-19T18:21:44.300Z,3.229
2022-08-19T18:23:46.063Z,0.561
2022-08-19T18:25:46.246Z,0.28
2022-08-19T18:27:47.706Z,0
2022-08-19T18:29:49.126Z,0.982
2022-08-19T18:31:50.610Z,2.386
2022-08-19T18:35:53.351Z,2.246
2022-08-19T18:37:54.617Z,2.667
2022-08-19T18:39:55.648Z,2.667
2022-08-19T18:41:56.551Z,1.544
2022-08-19T18:43:58.171Z,0.842
2022-08-19T18:45:59.281Z,1.123
2022-08-19T18:48:00.791Z,2.246
2022-08-19T18:50:01.977Z,1.684
2022-08-19T18:52:03.635Z,0.421
2022-08-19T18:54:04.843Z,3.229
2022-08-19T18:56:06.222Z,2.667
2022-08-19T18:58:07.309Z,2.948
2022-08-19T19:00:08.814Z,0.842
2022-08-19T19:02:10.440Z,2.386
2022-08-19T19:04:11.809Z,1.123
2022-08-19T19:06:13.487Z,1.123
2022-08-19T19:08:14.505Z,0.14
2022-08-19T19:10:16.178Z,2.667
2022-08-19T19:12:17.594Z,0.421
2022-08-19T19:14:32.658Z,2.106
2022-08-19T19:18:21.114Z,0.561
2022-08-19T19:20:35.039Z,0.421
2022-08-19T19:22:23.552Z,0
2022-08-19T19:24:24.388Z,2.527
2022-08-19T19:28:27.404Z,0.421
2022-08-19T19:30:28.486Z,2.106
2022-08-19T19:32:30.255Z,3.931
2022-08-19T19:34:31.380Z,4.212
2022-08-19T19:36:33.051Z,2.667
2022-08-19T19:38:34.554Z,5.054
2022-08-19T19:40:35.952Z,0.421
2022-08-19T19:42:37.248Z,3.088
2022-08-19T19:44:39.070Z,2.106
2022-08-19T19:46:40.241Z,3.088
2022-08-19T19:48:41.431Z,3.369
2022-08-19T19:50:42.387Z,4.633
2022-08-19T19:52:44.221Z,2.106
2022-08-19T19:54:47.713Z,1.965
2022-08-19T19:56:47.351Z,1.263
2022-08-19T20:00:50.070Z,2.386
2022-08-19T20:02:51.235Z,1.825
2022-08-19T20:04:52.584Z,4.352
2022-08-19T20:06:54.133Z,2.527
2022-08-19T20:10:56.571Z,1.123
2022-08-19T20:12:58.193Z,0.14
2022-08-19T20:14:59.395Z,0.421
2022-08-19T20:17:00.323Z,1.825
2022-08-19T20:21:03.574Z,3.369
2022-08-19T20:23:04.586Z,0.561
2022-08-19T20:25:05.883Z,1.544
2022-08-19T20:27:07.414Z,0.842
2022-08-19T20:29:08.904Z,0.28
2022-08-19T20:31:10.072Z,0.842
2022-08-19T20:33:11.075Z,0
2022-08-19T20:35:12.450Z,0.842
2022-08-19T20:37:13.901Z,1.263
2022-08-19T20:39:15.021Z,2.527
2022-08-19T20:41:16.267Z,2.527
2022-08-19T20:43:17.424Z,0
2022-08-19T20:45:19.704Z,0
2022-08-19T20:47:19.983Z,0.14
2022-08-19T20:51:22.132Z,0
2022-08-19T20:53:23.698Z,0
2022-08-19T20:55:25.341Z,0
2022-08-19T20:57:26.971Z,0
2022-08-19T20:59:28.667Z,0
2022-08-19T21:01:30.399Z,0
2022-08-19T21:03:31.768Z,0.28
2022-08-19T21:05:33.052Z,0
2022-08-19T21:07:38.900Z,0
2022-08-19T21:09:35.143Z,0
2022-08-19T21:11:36.695Z,0
2022-08-19T21:13:37.652Z,0.14
2022-08-19T21:15:39.127Z,0
2022-08-19T21:17:40.681Z,0
2022-08-19T21:19:41.868Z,0
2022-08-19T21:21:42.812Z,0
2022-08-19T21:23:44.236Z,0
2022-08-19T21:25:51.710Z,0
2022-08-19T21:27:46.929Z,0
2022-08-19T21:29:48.715Z,0
2022-08-19T21:31:50.260Z,0
2022-08-19T21:33:51.519Z,0
2022-08-19T21:35:52.882Z,0
2022-08-19T21:36:36.672Z,0
2022-08-19T21:38:38.498Z,0
2022-08-19T21:40:39.846Z,0
2022-08-19T21:42:41.422Z,0
2022-08-19T21:46:44.170Z,0
2022-08-19T21:48:45.038Z,0
2022-08-19T21:50:48.298Z,0
2022-08-19T21:52:48.090Z,0
2022-08-19T21:54:49.855Z,0
2022-08-19T21:56:51.434Z,0
2022-08-19T21:58:52.998Z,0
2022-08-19T22:00:54.534Z,0
2022-08-19T22:02:55.625Z,0
2022-08-19T22:04:56.758Z,0
2022-08-19T22:06:57.968Z,0
2022-08-19T22:08:59.729Z,0
2022-08-19T22:11:01.105Z,0
2022-08-19T22:13:02.383Z,0
2022-08-19T22:15:03.704Z,0
2022-08-19T22:17:04.846Z,0
2022-08-19T22:19:06.628Z,0
2022-08-19T22:21:11.532Z,0
2022-08-19T22:23:09.551Z,0
2022-08-19T22:25:11.027Z,0
2022-08-19T22:27:12.486Z,0
2022-08-19T22:29:15.216Z,0.14
2022-08-19T22:31:15.565Z,0
2022-08-19T22:33:16.536Z,0
2022-08-19T22:35:18.238Z,0
2022-08-19T22:37:20.031Z,0
2022-08-19T22:39:21.632Z,0
2022-08-19T22:41:22.519Z,0
2022-08-19T22:43:24.238Z,0
2022-08-19T22:45:25.299Z,0
2022-08-19T22:47:27.149Z,0
2022-08-19T22:49:27.657Z,0
2022-08-19T22:51:29.365Z,0
2022-08-19T22:53:30.646Z,0
2022-08-19T22:55:32.047Z,0
2022-08-19T22:57:33.823Z,0
2022-08-19T22:59:35.440Z,0
2022-08-19T23:01:44.666Z,0
2022-08-19T23:03:38.181Z,0
2022-08-19T23:05:39.447Z,0
2022-08-19T23:07:40.655Z,0
2022-08-19T23:09:42.430Z,0
2022-08-19T23:11:44.195Z,0
2022-08-19T23:13:45.105Z,0
2022-08-19T23:15:46.709Z,0
2022-08-19T23:17:47.600Z,0
2022-08-19T23:19:48.756Z,0
2022-08-19T23:21:50.038Z,0
2022-08-19T23:23:51.078Z,0
2022-08-19T23:25:51.965Z,0
2022-08-19T23:27:53.206Z,0
2022-08-19T23:29:54.574Z,0
2022-08-19T23:31:55.841Z,0
2022-08-19T23:33:57.038Z,0.14
2022-08-19T23:35:58.902Z,0.842
2022-08-19T23:37:59.878Z,0
2022-08-19T23:40:01.698Z,0
2022-08-19T23:42:02.593Z,0
2022-08-19T23:44:04.192Z,0
2022-08-19T23:46:06.619Z,0
2022-08-19T23:48:06.397Z,0
2022-08-19T23:50:07.237Z,0
2022-08-19T23:52:08.123Z,0.702
2022-08-19T23:54:09.135Z,1.404
2022-08-19T23:56:10.608Z,0.28
2022-08-19T23:58:12.250Z,0.561
